地図

経路データ

SID SEASON NUMBER BASIN SUBBASIN NAME ISO_TIME NATURE LAT LON WMO_WIND WMO_PRES WMO_AGENCY TRACK_TYPE DIST2LAND LANDFALL IFLAG USA_AGENCY USA_ATCF_ID USA_LAT USA_LON USA_RECORD USA_STATUS USA_WIND USA_PRES USA_SSHS USA_R34_NE USA_R34_SE USA_R34_SW USA_R34_NW USA_R50_NE USA_R50_SE USA_R50_SW USA_R50_NW USA_R64_NE USA_R64_SE USA_R64_SW USA_R64_NW USA_POCI USA_ROCI USA_RMW USA_EYE TOKYO_LAT TOKYO_LON TOKYO_GRADE TOKYO_WIND TOKYO_PRES TOKYO_R50_DIR TOKYO_R50_LONG TOKYO_R50_SHORT TOKYO_R30_DIR TOKYO_R30_LONG TOKYO_R30_SHORT TOKYO_LAND CMA_LAT CMA_LON CMA_CAT CMA_WIND CMA_PRES HKO_LAT HKO_LON HKO_CAT HKO_WIND HKO_PRES NEWDELHI_LAT NEWDELHI_LON NEWDELHI_GRADE NEWDELHI_WIND NEWDELHI_PRES NEWDELHI_CI NEWDELHI_DP NEWDELHI_POCI REUNION_LAT REUNION_LON REUNION_TYPE REUNION_WIND REUNION_PRES REUNION_TNUM REUNION_CI REUNION_RMW REUNION_R34_NE REUNION_R34_SE REUNION_R34_SW REUNION_R34_NW REUNION_R50_NE REUNION_R50_SE REUNION_R50_SW REUNION_R50_NW REUNION_R64_NE REUNION_R64_SE REUNION_R64_SW REUNION_R64_NW BOM_LAT BOM_LON BOM_TYPE BOM_WIND BOM_PRES BOM_TNUM BOM_CI BOM_RMW BOM_R34_NE BOM_R34_SE BOM_R34_SW BOM_R34_NW BOM_R50_NE BOM_R50_SE BOM_R50_SW BOM_R50_NW BOM_R64_NE BOM_R64_SE BOM_R64_SW BOM_R64_NW BOM_ROCI BOM_POCI BOM_EYE BOM_POS_METHOD BOM_PRES_METHOD NADI_LAT NADI_LON NADI_CAT NADI_WIND NADI_PRES WELLINGTON_LAT WELLINGTON_LON WELLINGTON_WIND WELLINGTON_PRES DS824_LAT DS824_LON DS824_STAGE DS824_WIND DS824_PRES TD9636_LAT TD9636_LON TD9636_STAGE TD9636_WIND TD9636_PRES TD9635_LAT TD9635_LON TD9635_WIND TD9635_PRES TD9635_ROCI NEUMANN_LAT NEUMANN_LON NEUMANN_CLASS NEUMANN_WIND NEUMANN_PRES MLC_LAT MLC_LON MLC_CLASS MLC_WIND MLC_PRES USA_GUST BOM_GUST BOM_GUST_PER REUNION_GUST REUNION_GUST_PER USA_SEAHGT USA_SEARAD_NE USA_SEARAD_SE USA_SEARAD_SW USA_SEARAD_NW STORM_SPEED STORM_DIR
1878282N11326 1878 26 NA NA NOT_NAMED 1878-10-08 18:00:00 TS 11.0000 -34.0000 main 1684 1676 _____________O -1 11.0000 -34.0000 TD 30 17 307
1878282N11326 1878 26 NA NA NOT_NAMED 1878-10-08 21:00:00 TS 11.5005 -34.6744 main 1709 1709 _____________P -1 11.5005 -34.6744 TD 32 34 316
1878282N11326 1878 26 NA NA NOT_NAMED 1878-10-09 00:00:00 TS 13.4400 -36.3800 40 hurdat_atl main 1864 1864 O____________O hurdat_atl AL091878 15.6000 -38.0000 TS 40 0 12.0000 -35.3000 TS 35 36 317
1878282N11326 1878 26 NA NA NOT_NAMED 1878-10-09 03:00:00 TS 14.0998 -37.1565 main 1896 1867 P____________P AL091878 15.7002 -38.4499 TS 40 0 12.4995 -35.8631 TS 40 20 309
1878282N11326 1878 26 NA NA NOT_NAMED 1878-10-09 06:00:00 TS 14.6800 -37.9400 40 hurdat_atl main 1874 1836 O____________O hurdat_atl AL091878 15.8000 -38.9000 TS 40 0 13.0000 -36.5000 TS 45 18 304
1878282N11326 1878 26 NA NA NOT_NAMED 1878-10-09 09:00:00 TS 15.1000 -38.6876 main 1834 1801 P____________P AL091878 15.8999 -39.3500 TS 40 0 13.5002 -37.3626 TS 50 15 296
1878282N11326 1878 26 NA NA NOT_NAMED 1878-10-09 12:00:00 TS 15.3333 -39.3000 40 hurdat_atl main 1801 1776 O____________O hurdat_atl AL091878 16.0000 -39.8000 TS 40 0 14.0000 -38.3000 TS 55 13 292
1878282N11326 1878 26 NA NA NOT_NAMED 1878-10-09 15:00:00 TS 15.5691 -39.9008 main 1776 1754 P____________P AL091878 16.0924 -40.2426 TS 40 0 14.5226 -39.2173 TS 60 12 293
1878282N11326 1878 26 NA NA NOT_NAMED 1878-10-09 18:00:00 TS 15.8000 -40.4667 40 hurdat_atl main 1747 1733 O____________O hurdat_atl AL091878 16.2000 -40.7000 TS 40 0 15.0000 -40.0000 HU 65 11 294
1878282N11326 1878 26 NA NA NOT_NAMED 1878-10-09 21:00:00 TS 16.0264 -40.9677 main 1727 1716 P____________P AL091878 16.3499 -41.1925 TS 45 0 15.3795 -40.5180 HU 65 10 295
1878282N11326 1878 26 NA NA NOT_NAMED 1878-10-10 00:00:00 TS 16.2333 -41.4333 50 hurdat_atl main 1716 1700 O____________O hurdat_atl AL091878 16.5000 -41.7000 TS 50 0 15.7000 -40.9000 HU 65 10 293
1878282N11326 1878 26 NA NA NOT_NAMED 1878-10-10 03:00:00 TS 16.3999 -41.9002 main 1700 1683 P____________P AL091878 16.5999 -42.2002 TS 50 0 15.9998 -41.3003 HU 65 10 290
1878282N11326 1878 26 NA NA NOT_NAMED 1878-10-10 06:00:00 TS 16.5667 -42.3667 50 hurdat_atl main 1685 1670 O____________O hurdat_atl AL091878 16.7000 -42.7000 TS 50 0 16.3000 -41.7000 HU 65 10 293
1878282N11326 1878 26 NA NA NOT_NAMED 1878-10-10 09:00:00 TS 16.7832 -42.8450 main 1679 1663 P____________P AL091878 16.8498 -43.1925 TS 50 0 16.6500 -42.1500 HU 65 10 295
1878282N11326 1878 26 NA NA NOT_NAMED 1878-10-10 12:00:00 TS 17.0000 -43.3333 50 hurdat_atl main 1665 1641 O____________O hurdat_atl AL091878 17.0000 -43.7000 TS 50 0 17.0000 -42.6000 HU 65 10 292
1878282N11326 1878 26 NA NA NOT_NAMED 1878-10-10 15:00:00 TS 17.1566 -43.8336 main 1650 1628 P____________P AL091878 17.0850 -44.2503 TS 50 0 17.2998 -43.0003 HU 67 10 289
1878282N11326 1878 26 NA NA NOT_NAMED 1878-10-10 18:00:00 TS 17.3333 -44.3333 50 hurdat_atl main 1628 1620 O____________O hurdat_atl AL091878 17.2000 -44.8000 TS 50 0 17.6000 -43.4000 HU 70 10 295
1878282N11326 1878 26 NA NA NOT_NAMED 1878-10-10 21:00:00 TS 17.6015 -44.8216 main 1627 1621 P____________P AL091878 17.4273 -45.3075 TS 55 0 17.9500 -43.8500 HU 70 11 302
1878282N11326 1878 26 NA NA NOT_NAMED 1878-10-11 00:00:00 TS 17.9000 -45.3000 60 hurdat_atl main 1628 1622 O____________O hurdat_atl AL091878 17.7000 -45.8000 TS 60 0 18.3000 -44.3000 HU 70 11 301
1878282N11326 1878 26 NA NA NOT_NAMED 1878-10-11 03:00:00 TS 18.1516 -45.7744 main 1632 1627 P____________P AL091878 17.9274 -46.3078 TS 60 0 18.5999 -44.7078 HU 70 10 301
1878282N11326 1878 26 NA NA NOT_NAMED 1878-10-11 06:00:00 TS 18.4333 -46.2333 60 hurdat_atl main 1632 1632 O____________O hurdat_atl AL091878 18.2000 -46.8000 TS 60 0 18.9000 -45.1000 HU 70 11 307
1878282N11326 1878 26 NA NA NOT_NAMED 1878-10-11 09:00:00 TS 18.8066 -46.6891 main 1650 1650 P____________P AL091878 18.5850 -47.2873 TS 60 0 19.2499 -45.4926 HU 72 11 313
1878282N11326 1878 26 NA NA NOT_NAMED 1878-10-11 12:00:00 TS 19.2000 -47.1000 60 hurdat_atl main 1674 1674 O____________O hurdat_atl AL091878 19.0000 -47.7000 TS 60 0 19.6000 -45.9000 HU 75 10 315
1878282N11326 1878 26 NA NA NOT_NAMED 1878-10-11 15:00:00 TS 19.5107 -47.4321 main 1691 1686 P____________P AL091878 19.3198 -47.9731 TS 60 0 19.8925 -46.3503 HU 75 9 318
1878282N11326 1878 26 NA NA NOT_NAMED 1878-10-11 18:00:00 TS 19.8667 -47.7333 60 hurdat_atl main 1717 1713 O____________O hurdat_atl AL091878 19.7000 -48.2000 TS 60 0 20.2000 -46.8000 HU 75 11 326
1878282N11326 1878 26 NA NA NOT_NAMED 1878-10-11 21:00:00 TS 20.3775 -48.0641 main 1751 1751 P____________P AL091878 20.2775 -48.4924 TS 65 1 20.5774 -47.2077 HU 75 12 330
1878282N11326 1878 26 NA NA NOT_NAMED 1878-10-12 00:00:00 TS 20.9333 -48.4000 70 hurdat_atl main 1765 1763 O____________O hurdat_atl AL091878 20.9000 -48.8000 HU 70 1 21.0000 -47.6000 HU 75 12 329
1878282N11326 1878 26 NA NA NOT_NAMED 1878-10-12 03:00:00 TS 21.4216 -48.7385 main 1776 1768 P____________P AL091878 21.4075 -49.1078 HU 70 1 21.4499 -48.0001 HU 77 12 327
1878282N11326 1878 26 NA NA NOT_NAMED 1878-10-12 06:00:00 TS 21.9000 -49.0667 70 hurdat_atl main 1765 1745 O____________O hurdat_atl AL091878 21.9000 -49.4000 HU 70 1 21.9000 -48.4000 HU 80 12 329
1878282N11326 1878 26 NA NA NOT_NAMED 1878-10-12 09:00:00 TS 22.4074 -49.3719 main 1745 1727 P____________P AL091878 22.4574 -49.6577 HU 70 1 22.3074 -48.8003 HU 80 11 331
1878282N11326 1878 26 NA NA NOT_NAMED 1878-10-12 12:00:00 TS 22.9000 -49.6667 70 hurdat_atl main 1727 1709 O____________O hurdat_atl AL091878 23.0000 -49.9000 HU 70 1 22.7000 -49.2000 HU 80 11 330
1878282N11326 1878 26 NA NA NOT_NAMED 1878-10-12 15:00:00 TS 23.3508 -49.9693 main 1712 1693 P____________P AL091878 23.4725 -50.1502 HU 70 1 23.1075 -49.6076 HU 80 10 328
1878282N11326 1878 26 NA NA NOT_NAMED 1878-10-12 18:00:00 TS 23.7667 -50.2667 70 hurdat_atl main 1696 1684 O____________O hurdat_atl AL091878 23.9000 -50.4000 HU 70 1 23.5000 -50.0000 HU 80 10 326
1878282N11326 1878 26 NA NA NOT_NAMED 1878-10-12 21:00:00 TS 24.1424 -50.5528 main 1678 1670 P____________P AL091878 24.2850 -50.6503 HU 70 1 23.8574 -50.3578 HU 82 9 326
1878282N11326 1878 26 NA NA NOT_NAMED 1878-10-13 00:00:00 TS 24.5333 -50.8333 70 hurdat_atl main 1674 1663 O____________O hurdat_atl AL091878 24.7000 -50.9000 HU 70 1 24.2000 -50.7000 HU 85 10 329
1878282N11326 1878 26 NA NA NOT_NAMED 1878-10-13 03:00:00 TS 25.0041 -51.1217 main 1667 1658 P____________P AL091878 25.2275 -51.1575 HU 70 1 24.5574 -51.0501 HU 85 11 332
1878282N11326 1878 26 NA NA NOT_NAMED 1878-10-13 06:00:00 TS 25.5000 -51.4000 70 hurdat_atl main 1663 1659 O____________O hurdat_atl AL091878 25.8000 -51.4000 HU 70 1 24.9000 -51.4000 HU 85 11 333
1878282N11326 1878 26 NA NA NOT_NAMED 1878-10-13 09:00:00 TS 25.9766 -51.6701 main 1662 1658 P____________P AL091878 26.3650 -51.6299 HU 70 1 25.1999 -51.7503 HU 85 10 334
1878282N11326 1878 26 NA NA NOT_NAMED 1878-10-13 12:00:00 TS 26.4333 -51.9000 70 hurdat_atl main 1666 1666 O____________O hurdat_atl AL091878 26.9000 -51.8000 HU 70 1 25.5000 -52.1000 HU 85 10 338
1878282N11326 1878 26 NA NA NOT_NAMED 1878-10-13 15:00:00 TS 26.8624 -52.0752 main 1677 1677 P____________P AL091878 27.3724 -51.8877 HU 70 1 25.8424 -52.4501 HU 87 9 342
1878282N11326 1878 26 NA NA NOT_NAMED 1878-10-13 18:00:00 TS 27.2667 -52.2000 70 hurdat_atl main 1693 1690 O____________O hurdat_atl AL091878 27.8000 -51.9000 HU 70 1 26.2000 -52.8000 HU 90 8 345
1878282N11326 1878 26 NA NA NOT_NAMED 1878-10-13 21:00:00 TS 27.6301 -52.3133 main 1703 1703 P____________P AL091878 28.1925 -51.8577 HU 70 1 26.5052 -53.2245 HU 90 8 349
1878282N11326 1878 26 NA NA NOT_NAMED 1878-10-14 00:00:00 TS 28.0333 -52.3667 70 hurdat_atl main 1720 1720 O____________O hurdat_atl AL091878 28.6000 -51.8000 HU 70 1 26.9000 -53.5000 HU 90 961 9 357
1878282N11326 1878 26 NA NA NOT_NAMED 1878-10-14 03:00:00 TS 28.5457 -52.3613 main 1754 1754 P____________P AL091878 29.0850 -51.7998 HU 70 1 27.4671 -53.4842 HU 92 11 5
1878282N11326 1878 26 NA NA NOT_NAMED 1878-10-14 06:00:00 TS 29.1333 -52.2667 70 hurdat_atl main 1802 1802 O____________O hurdat_atl AL091878 29.6000 -51.8000 HU 70 1 28.2000 -53.2000 HU 95 12 12
1878282N11326 1878 26 NA NA NOT_NAMED 1878-10-14 09:00:00 TS 29.7218 -52.0701 main 1860 1807 P____________P AL091878 30.0700 -51.7502 HU 70 1 29.0254 -52.7101 HU 95 13 17
1878282N11326 1878 26 NA NA NOT_NAMED 1878-10-14 12:00:00 TS 30.4000 -51.8333 70 hurdat_atl main 1807 1730 O____________O hurdat_atl AL091878 30.6000 -51.7000 HU 70 1 30.0000 -52.1000 HU 95 15 14
1878282N11326 1878 26 NA NA NOT_NAMED 1878-10-14 15:00:00 TS 31.1673 -51.6662 main 1719 1631 P____________P AL091878 31.2026 -51.7069 HU 70 1 31.0968 -51.5849 HU 97 17 10
1878282N11326 1878 26 NA NA NOT_NAMED 1878-10-14 18:00:00 TS 32.1000 -51.4667 70 hurdat_atl main 1620 1500 O____________O hurdat_atl AL091878 32.0000 -51.7000 HU 70 1 32.3000 -51.0000 MH 100 21 12
1878282N11326 1878 26 NA NA NOT_NAMED 1878-10-14 21:00:00 TS 33.2234 -51.1726 main 1500 1372 P____________P AL091878 33.0676 -51.6368 HU 70 1 33.5350 -50.2442 MH 100 24 13
1878282N11326 1878 26 NA NA NOT_NAMED 1878-10-15 00:00:00 TS 34.4667 -50.8000 70 hurdat_atl main 1361 1244 O____________O hurdat_atl AL091878 34.3000 -51.5000 HU 70 1 34.8000 -49.4000 MH 100 26 14
1878282N11326 1878 26 NA NA NOT_NAMED 1878-10-15 03:00:00 TS 35.7109 -50.4191 main 1234 1108 P____________P AL091878 35.5570 -51.3303 HU 70 1 36.0186 -48.5965 MH 100 25 13
1878282N11326 1878 26 NA NA NOT_NAMED 1878-10-15 06:00:00 TS 36.9364 -50.1000 70 hurdat_atl main 1108 987 O____________O hurdat_atl AL091878 36.8000 -51.0000 HU 70 1 37.3000 -47.7000 MH 100 958 25 14
1878282N11326 1878 26 NA NA NOT_NAMED 1878-10-15 09:00:00 TS 38.1283 -49.6748 main 987 894 P____________P AL091878 37.9523 -50.4400 HU 70 1 38.7131 -46.6203 MH 92 961 23 17
1878282N11326 1878 26 NA NA NOT_NAMED 1878-10-15 12:00:00 TS 39.1333 -49.2222 70 hurdat_atl main 894 818 O____________O hurdat_atl AL091878 39.0000 -49.7000 HU 70 1 40.2000 -45.4000 HU 85 965 19 18
1878282N11326 1878 26 NA NA NOT_NAMED 1878-10-15 15:00:00 TS 39.9665 -48.9158 main 811 762 P_____________ AL091878 39.9665 -48.9158 HU 70 1 HU 19 29
1878282N11326 1878 26 NA NA NOT_NAMED 1878-10-15 18:00:00 TS 40.8000 -48.0000 70 hurdat_atl main 767 748 O_____________ hurdat_atl AL091878 40.8000 -48.0000 HU 70 1 21 44
1878282N11326 1878 26 NA NA NOT_NAMED 1878-10-15 21:00:00 TS 41.5090 -46.9652 main 751 750 P_____________ AL091878 41.5090 -46.9652 HU 65 1 21 52
1878282N11326 1878 26 NA NA NOT_NAMED 1878-10-16 00:00:00 ET 42.1000 -45.8000 60 hurdat_atl main 769 768 O_____________ hurdat_atl AL091878 42.1000 -45.8000 EX 60 -4 22 58
1878282N11326 1878 26 NA NA NOT_NAMED 1878-10-16 03:00:00 ET 42.6679 -44.5007 main 808 808 P_____________ AL091878 42.6679 -44.5007 EX 60 -4 22 62
1878282N11326 1878 26 NA NA NOT_NAMED 1878-10-16 06:00:00 ET 43.1000 -43.2000 60 hurdat_atl main 870 870 O_____________ hurdat_atl AL091878 43.1000 -43.2000 EX 60 -4 19 69
1878282N11326 1878 26 NA NA NOT_NAMED 1878-10-16 09:00:00 ET 43.3336 -42.1251 main 936 936 P_____________ AL091878 43.3336 -42.1251 EX 60 -4 16 76
1878282N11326 1878 26 NA NA NOT_NAMED 1878-10-16 12:00:00 ET 43.5000 -41.0000 60 hurdat_atl main 1002 1002 O_____________ hurdat_atl AL091878 43.5000 -41.0000 EX 60 -4 19 78
1878282N11326 1878 26 NA NA NOT_NAMED 1878-10-16 15:00:00 ET 43.7314 -39.5953 main 1090 1090 P_____________ AL091878 43.7314 -39.5953 EX 60 -4 22 77
1878282N11326 1878 26 NA NA NOT_NAMED 1878-10-16 18:00:00 ET 44.0000 -38.0000 60 hurdat_atl main 1191 O_____________ hurdat_atl AL091878 44.0000 -38.0000 EX 60 -4 24 77

IBTrACS Databaseについて

本データベースは、米国NOAAが公開する1842年以降の世界の熱帯低気圧のベストトラックデータアーカイブInternational Best Track Archive for Climate Stewardship (IBTrACS)を、ウェブで閲覧しやすい形式に変換したものです。

最終更新日:2021-11-26